Loging...

KPDC, Korea Polar Data Center

Korea Polar Data Center Scientific observations and results from Antarctica shall
be exchanged and made freely available

Keyword Search

Advanced Search

Search 28,375 data out of 28,375

Metadata Search Results1
No. Title Reg. Date
101 [KOPRI-ROCK-00001624]170728 01 2019-09-23
102 [KOPRI-ROCK-00001625]170728 02 2019-09-23
103 [KOPRI-ROCK-00001626]170728 03 2019-09-23
104 [KOPRI-ROCK-00001627]170728 04 2019-09-23
105 [KOPRI-ROCK-00001628]170728 05 2019-09-23
106 [KOPRI-ROCK-00001629]170728 06 2019-09-23
107 [KOPRI-ROCK-00001630]170728 07 2019-09-23
108 [KOPRI-ROCK-00001631]170728 08 2019-09-23
109 [KOPRI-ROCK-00001632]170728 09 2019-09-23
110 [KOPRI-ROCK-00001633]170730 01 2019-09-23
111 [KOPRI-KPDC-00000051]1994 Sediment Core, Antarctica 2011-08-27
112 [KOPRI-KPDC-00000014]1994 Seismic Data, Antarctica 2011-08-17
113 [KOPRI-KPDC-00000052]1995 Sediment Core, Antarctica 2011-08-28
114 [KOPRI-KPDC-00000012]1995 Seismic Data, Antarctica 2011-08-29
115 [KOPRI-KPDC-00000053]1996 Sediment Core, Antarctica 2011-08-29
116 [KOPRI-KPDC-00000011]1996 Seismic Data, Antarctica 2011-09-01
117 [KOPRI-KPDC-00000054]1997 Sediment Core, Antarctica 2011-08-30
118 [KOPRI-KPDC-00000009]1997 Seismic Data, Antarctica 2011-09-01
119 [KOPRI-KPDC-00000055]1998 Sediment Core, Antarctica 2011-09-01
120 [KOPRI-KPDC-00000008]1998 Seismic Data, Antarctica 2011-09-01
121 [KOPRI-KPDC-00000056]1999 Sediment Core, Antarctica 2011-09-02
122 [KOPRI-KPDC-00000015]1999 Seismic Data, Antarctica 2011-09-01
123 [KOPRI-KPDC-00000043]2000 Sediment Core, Antarctica 2011-09-03
124 [KOPRI-KPDC-00000007]2000 Seismic Data, Antarctica 2011-09-01
125 [KOPRI-KPDC-00000044]2001 Sediment Core, Antarctica 2011-09-04
126 [KOPRI-KPDC-00000005]2001 Seismic Data, Antarctica 2011-09-02
127 [KOPRI-KPDC-00000045]2002 Sediment Core, Antarctica 2011-09-05
128 [KOPRI-KPDC-00000004]2002 Seismic Data, Antarctica 2011-09-02
129 [KOPRI-KPDC-00000046]2003 Sediment Core, Antarctica 2011-09-06
130 [KOPRI-KPDC-00000003]2003 Seismic Data, Antarctica 2011-09-02
131 [KOPRI-KPDC-00000047]2004 Sediment Core, Antarctica 2011-09-07
132 [KOPRI-KPDC-00000002]2004 Seismic Data, Antarctica 2011-09-02
133 [KOPRI-KPDC-00000057]2005 Sediment Core, Antarctica 2011-09-08
134 [KOPRI-KPDC-00000049]2005 Seismic Data, Antarctica 2011-12-03
135 [KOPRI-KPDC-00000058]2006 Sediment Core, Antarctica 2011-09-09
136 [KOPRI-KPDC-00000050]2006 Seismic Data, Antarctica 2011-12-03
137 [KOPRI-KPDC-00000048]2008 Sediment Core, Antarctica 2011-09-10
138 [KOPRI-KPDC-00000060]2010 Sediment Core, Antarctica (K-Polar) 2011-12-07
139 [KOPRI-KPDC-00000059]2010 Sediment Core, Antarctica (LARISSA) 2011-12-06
140 [KOPRI-KPDC-00000470]2011 Mooring Data, Antarctic 2013-11-11
141 [KOPRI-KPDC-00000062]2012 Sediment Core, Antarctica (LARISSA) 2011-12-07
142 [KOPRI-KPDC-00000061]2012 Sediment Core, Antarctica (아문젠해 사업) 2011-12-07
143 [KOPRI-KPDC-00000464]2013 CTD Data, in Chukchi Borderland/Mendeleev Ridge of Arctic 2013-10-28
144 [KOPRI-KPDC-00000321]2013 CTD Data, Ross Sea of Antarctic 2013-03-22
145 [KOPRI-KPDC-00000322]2013 LADCP Data, Antarctic 2013-03-22
146 [KOPRI-KPDC-00000465]2013 LADCP Data, in Chukchi Borderland, Arctic 2013-10-29
147 [KOPRI-KPDC-00000737]2014-15 Jang Bogo Station micro climate data_HOBO_soil temp.,PAR,air temp.,relative humidity 2015-10-06
148 [KOPRI-KPDC-00000487]2014 Midtre Lovenbreen glacier foreland soil 2014-10-08
149 [KOPRI-ROCK-00001158]20150901-01a 2019-06-21
150 [KOPRI-ROCK-00001159]20150901-01b 2019-06-21
151 [KOPRI-ROCK-00001160]20150901-02 2019-06-21
152 [KOPRI-ROCK-00001801]20151218-01 2019-09-23
153 [KOPRI-ROCK-00001802]20151218-02 2019-09-23
154 [KOPRI-ROCK-00001803]20151218-03 2019-09-23
155 [KOPRI-ROCK-00001804]20151218-04 2019-09-23
156 [KOPRI-ROCK-00001805]20151218-06 2019-09-23
157 [KOPRI-ROCK-00001806]20151218-07 2019-09-23
158 [KOPRI-ROCK-00001807]20151218-08 2019-09-23
159 [KOPRI-ROCK-00001808]20151218-09 2019-09-23
160 [KOPRI-ROCK-00001809]20151218-10 2019-09-23
161 [KOPRI-ROCK-00001810]20151218-11 2019-09-23
162 [KOPRI-ROCK-00001811]20151218-12 2019-09-23
163 [KOPRI-ROCK-00001812]20151218-13 2019-09-23
164 [KOPRI-ROCK-00001813]20151218-14 2019-09-23
165 [KOPRI-ROCK-00001814]20151218-15 2019-09-23
166 [KOPRI-ROCK-00001815]20151218-16 2019-09-23
167 [KOPRI-KPDC-00000620]2015-2016 JBS_micro-climate data_HOBO_soil temp.,PAR,air temp.,relative humidity 2016-10-13
168 [KOPRI-KPDC-00000523]2015 ARAON Arctic geological expedition sediment core data 2015-10-01
169 [KOPRI-KPDC-00000526]2015 ARAON Arctic geological expedition sediment core data 2015-10-01
170 [KOPRI-KPDC-00000525]2015 ARAON Arctic geological expedition sediment core data 2015-10-01
171 [KOPRI-KPDC-00000524]2015 ARAON Arctic geological expedition sediment core data 2015-10-01
172 [KOPRI-KPDC-00000767]2016-2017 Barton Peninsular micro-climate data_HOBO soil temp., PAR, air temp., relative humidity 2017-09-27
173 [KOPRI-ROCK-00001825]20171112-01 2019-09-23
174 [KOPRI-ROCK-00001826]20171112-02 2019-09-23
175 [KOPRI-ROCK-00001827]20171112-03 2019-09-23
176 [KOPRI-ROCK-00001828]20171112-04 2019-09-23
177 [KOPRI-ROCK-00001829]20171113-01 2019-09-23
178 [KOPRI-ROCK-00001830]20171113-02 2019-09-23
179 [KOPRI-ROCK-00001831]20171113-03 2019-09-23
180 [KOPRI-ROCK-00001832]20171113-03-1 2019-09-23
181 [KOPRI-ROCK-00001833]20171113-04 2019-09-23
182 [KOPRI-ROCK-00001834]20171113-05 2019-09-23
183 [KOPRI-ROCK-00001835]20171113-06 2019-09-23
184 [KOPRI-ROCK-00001836]20171113-07 2019-09-23
185 [KOPRI-ROCK-00001837]20171113-08 2019-09-23
186 [KOPRI-ROCK-00001838]20171113-09 2019-09-23
187 [KOPRI-ROCK-00001839]20171114-01 2019-09-23
188 [KOPRI-ROCK-00001840]20171114-02 2019-09-23
189 [KOPRI-ROCK-00001841]20171114-03 2019-09-23
190 [KOPRI-ROCK-00001842]20171114-04 2019-09-23
191 [KOPRI-ROCK-00001843]20171114-05 2019-09-23
192 [KOPRI-ROCK-00001844]20171114-06 2019-09-23
193 [KOPRI-ROCK-00001845]20171117-01 2019-09-23
194 [KOPRI-ROCK-00001846]20171117-01-1 2019-09-23
195 [KOPRI-ROCK-00001847]20171117-01-2 2019-09-23
196 [KOPRI-ROCK-00001848]20171121-01 2019-09-23
197 [KOPRI-ROCK-00001849]20171121-02 2019-09-23
198 [KOPRI-ROCK-00001850]20171121-03 2019-09-23
199 [KOPRI-KPDC-00001008]2018 KOPRI North Greenland Sirius Passet collection 1 2018-10-04
200 [KOPRI-KPDC-00001259]2018 KOPRI North Greenland Sirius Passet collection 1 2019-10-15